Aviation Digital Data Service (ADDS)

Output produced by METARs form (1741 UTC 21 November 2014)
found at http://aviationweather.gov/adds/metars/
 
KGMU 211729Z 2118/2218 07005KT P6SM SKC 
     FM220000 10003KT P6SM SCT250